RYR7PG EGPH-LFML
Flight info
| Callsign | RYR7PG |
|---|---|
| Flight time | N/A |
| Altitude | 37000 |
| Route | GOSAM P600 FENIK L612 NAVSO DCT AKOMU DCT VAMEB UL612 HON DCT XAMAB UL612 RESMI UM728 KETEX DCT KOTIS DCT KUKOR DCT UTUVA/N0401F290 DCT LERGA |
| Aircraft | B738/M-SDE3FGILRWY/SB1 |
Departure
| Time | 2026-05-01 13:35 |
|---|---|
| Airport | Edinburgh Airport (EGPH) |
Arrival
| Time | N/A |
|---|---|
| Airport | Marseille Provence Airport (LFML) |
| Time | Latitude | Longitude | Altitude | Speed | Heading |
|---|---|---|---|---|---|
| 2026-05-01 13:07 | 55.94969 | -3.36030 | 115 ft | 0 kts | 250° |
| 2026-05-01 13:25 | 55.94970 | -3.36025 | 115 ft | 3 kts | 250° |
| 2026-05-01 13:25 | 55.94979 | -3.35980 | 115 ft | 4 kts | 251° |
| 2026-05-01 13:25 | 55.94985 | -3.35941 | 111 ft | 4 kts | 268° |
| 2026-05-01 13:26 | 55.94980 | -3.35898 | 112 ft | 4 kts | 309° |
| 2026-05-01 13:26 | 55.94960 | -3.35868 | 111 ft | 4 kts | 332° |
| 2026-05-01 13:26 | 55.94937 | -3.35846 | 111 ft | 2 kts | 325° |
| 2026-05-01 13:26 | 55.94935 | -3.35844 | 112 ft | 0 kts | 324° |
| 2026-05-01 13:29 | 55.94945 | -3.35854 | 114 ft | 5 kts | 333° |
| 2026-05-01 13:30 | 55.95220 | -3.35980 | 115 ft | 13 kts | 11° |
| 2026-05-01 13:31 | 55.95325 | -3.35717 | 113 ft | 15 kts | 59° |
| 2026-05-01 13:31 | 55.95474 | -3.35414 | 112 ft | 8 kts | 335° |
| 2026-05-01 13:32 | 55.95491 | -3.35431 | 115 ft | 0 kts | 329° |
| 2026-05-01 13:33 | 55.95493 | -3.35433 | 115 ft | 2 kts | 329° |
| 2026-05-01 13:34 | 55.95548 | -3.35630 | 111 ft | 16 kts | 239° |
| 2026-05-01 13:34 | 55.94967 | -3.37346 | 111 ft | 140 kts | 239° |
| 2026-05-01 13:35 | 55.93773 | -3.40908 | 960 ft | 174 kts | 237° |
| 2026-05-01 13:35 | 55.93167 | -3.42753 | 1753 ft | 175 kts | 236° |
| 2026-05-01 13:35 | 55.91691 | -3.46927 | 2319 ft | 220 kts | 235° |
| 2026-05-01 13:36 | 55.90862 | -3.49273 | 2826 ft | 228 kts | 235° |
| 2026-05-01 13:36 | 55.89731 | -3.51368 | 3116 ft | 243 kts | 208° |
| 2026-05-01 13:36 | 55.86530 | -3.53632 | 4762 ft | 247 kts | 199° |
| 2026-05-01 13:37 | 55.84911 | -3.54657 | 5561 ft | 253 kts | 199° |
| 2026-05-01 13:37 | 55.83232 | -3.55706 | 5957 ft | 254 kts | 199° |
| 2026-05-01 13:37 | 55.81552 | -3.56745 | 5976 ft | 258 kts | 199° |
| 2026-05-01 13:37 | 55.79848 | -3.57810 | 5973 ft | 260 kts | 199° |
| 2026-05-01 13:38 | 55.76459 | -3.59904 | 5969 ft | 258 kts | 199° |
| 2026-05-01 13:38 | 55.74772 | -3.60937 | 5961 ft | 255 kts | 199° |
| 2026-05-01 13:38 | 55.73111 | -3.61933 | 5999 ft | 248 kts | 196° |
| 2026-05-01 13:39 | 55.71442 | -3.62646 | 6013 ft | 249 kts | 192° |
| 2026-05-01 13:39 | 55.69719 | -3.63274 | 6386 ft | 257 kts | 192° |
| 2026-05-01 13:39 | 55.67966 | -3.63907 | 7207 ft | 257 kts | 192° |
| 2026-05-01 13:39 | 55.66210 | -3.64552 | 7982 ft | 259 kts | 192° |
| 2026-05-01 13:40 | 55.64441 | -3.65211 | 8705 ft | 262 kts | 192° |
| 2026-05-01 13:40 | 55.62651 | -3.65887 | 9454 ft | 265 kts | 192° |
| 2026-05-01 13:40 | 55.60839 | -3.66577 | 10189 ft | 268 kts | 192° |
| 2026-05-01 13:40 | 55.58956 | -3.67299 | 10424 ft | 288 kts | 192° |
| 2026-05-01 13:41 | 55.56930 | -3.68078 | 10643 ft | 308 kts | 192° |
| 2026-05-01 13:41 | 55.54802 | -3.68897 | 11148 ft | 317 kts | 192° |
| 2026-05-01 13:41 | 55.52637 | -3.69732 | 11900 ft | 320 kts | 192° |
| 2026-05-01 13:41 | 55.50455 | -3.70574 | 12717 ft | 323 kts | 192° |
| 2026-05-01 13:42 | 55.48244 | -3.71408 | 13459 ft | 327 kts | 190° |
| 2026-05-01 13:42 | 55.45954 | -3.71566 | 14225 ft | 332 kts | 175° |
| 2026-05-01 13:42 | 55.43686 | -3.70757 | 14993 ft | 336 kts | 164° |
| 2026-05-01 13:42 | 55.41464 | -3.69380 | 15696 ft | 341 kts | 162° |
| 2026-05-01 13:43 | 55.39235 | -3.67911 | 16409 ft | 345 kts | 161° |
| 2026-05-01 13:43 | 55.36979 | -3.66409 | 17122 ft | 349 kts | 161° |
| 2026-05-01 13:43 | 55.34693 | -3.64893 | 17811 ft | 352 kts | 161° |
| 2026-05-01 13:43 | 55.32385 | -3.63374 | 18457 ft | 356 kts | 161° |
| 2026-05-01 13:44 | 55.30057 | -3.61852 | 19036 ft | 359 kts | 161° |
| 2026-05-01 13:44 | 55.27707 | -3.60324 | 19632 ft | 361 kts | 161° |
| 2026-05-01 13:44 | 55.25341 | -3.58793 | 20202 ft | 364 kts | 161° |
| 2026-05-01 13:44 | 55.22955 | -3.57254 | 20776 ft | 367 kts | 161° |
| 2026-05-01 13:45 | 55.20548 | -3.55706 | 21336 ft | 370 kts | 161° |
| 2026-05-01 13:45 | 55.18123 | -3.54148 | 21879 ft | 373 kts | 161° |
| 2026-05-01 13:45 | 55.15676 | -3.52579 | 22428 ft | 376 kts | 161° |
| 2026-05-01 13:45 | 55.13211 | -3.51002 | 22965 ft | 379 kts | 161° |
| 2026-05-01 13:46 | 55.10758 | -3.49434 | 23507 ft | 382 kts | 161° |
| 2026-05-01 13:46 | 55.08254 | -3.47836 | 23984 ft | 384 kts | 161° |
| 2026-05-01 13:46 | 55.05736 | -3.46230 | 24438 ft | 387 kts | 161° |
| 2026-05-01 13:46 | 55.03200 | -3.44615 | 24903 ft | 389 kts | 161° |
| 2026-05-01 13:47 | 55.00650 | -3.42994 | 25328 ft | 391 kts | 161° |
| 2026-05-01 13:47 | 54.98085 | -3.41366 | 25740 ft | 394 kts | 161° |
| 2026-05-01 13:47 | 54.95502 | -3.39728 | 26158 ft | 396 kts | 161° |
| 2026-05-01 13:47 | 54.92908 | -3.38086 | 26574 ft | 398 kts | 161° |
| 2026-05-01 13:48 | 54.90298 | -3.36435 | 26992 ft | 400 kts | 161° |
| 2026-05-01 13:48 | 54.87672 | -3.34777 | 27369 ft | 403 kts | 161° |
| 2026-05-01 13:48 | 54.85030 | -3.33111 | 27744 ft | 405 kts | 161° |
| 2026-05-01 13:48 | 54.82375 | -3.31440 | 28120 ft | 407 kts | 161° |
| 2026-05-01 13:49 | 54.79700 | -3.29758 | 28488 ft | 410 kts | 161° |
| 2026-05-01 13:49 | 54.77015 | -3.28072 | 28837 ft | 412 kts | 161° |
| 2026-05-01 13:49 | 54.74310 | -3.26376 | 29191 ft | 414 kts | 161° |
| 2026-05-01 13:49 | 54.71595 | -3.24676 | 29538 ft | 416 kts | 162° |
| 2026-05-01 13:50 | 54.69785 | -3.23544 | 29736 ft | 418 kts | 161° |
| 2026-05-01 13:50 | 54.67039 | -3.21829 | 30017 ft | 422 kts | 161° |
| 2026-05-01 13:50 | 54.64270 | -3.20102 | 30284 ft | 424 kts | 162° |
| 2026-05-01 13:50 | 54.61491 | -3.18372 | 30610 ft | 425 kts | 162° |
| 2026-05-01 13:51 | 54.58718 | -3.16646 | 31011 ft | 423 kts | 162° |
| 2026-05-01 13:51 | 54.55953 | -3.14929 | 31401 ft | 422 kts | 162° |
| 2026-05-01 13:51 | 54.53189 | -3.13215 | 31707 ft | 423 kts | 162° |
| 2026-05-01 13:51 | 54.50417 | -3.11499 | 32018 ft | 424 kts | 162° |
| 2026-05-01 13:52 | 54.47652 | -3.09789 | 32381 ft | 423 kts | 162° |
| 2026-05-01 13:52 | 54.44881 | -3.08079 | 32730 ft | 422 kts | 162° |
| 2026-05-01 13:52 | 54.42119 | -3.06376 | 33056 ft | 422 kts | 162° |
| 2026-05-01 13:53 | 54.36526 | -3.02938 | 33149 ft | 429 kts | 162° |
| 2026-05-01 13:53 | 54.28190 | -2.97826 | 33143 ft | 420 kts | 162° |
| 2026-05-01 13:54 | 54.22655 | -2.94447 | 33275 ft | 426 kts | 162° |
| 2026-05-01 13:54 | 54.19862 | -2.92746 | 33593 ft | 425 kts | 162° |
| 2026-05-01 13:54 | 54.17084 | -2.91055 | 34011 ft | 423 kts | 162° |
| 2026-05-01 13:55 | 54.14320 | -2.89376 | 34373 ft | 421 kts | 162° |
| 2026-05-01 13:55 | 54.11568 | -2.87706 | 34685 ft | 419 kts | 162° |
| 2026-05-01 13:55 | 54.08819 | -2.86041 | 34942 ft | 419 kts | 162° |
| 2026-05-01 13:55 | 54.06068 | -2.84378 | 35190 ft | 419 kts | 162° |
| 2026-05-01 13:56 | 54.03321 | -2.82718 | 35465 ft | 419 kts | 162° |
| 2026-05-01 13:56 | 54.00579 | -2.81061 | 35747 ft | 418 kts | 162° |
| 2026-05-01 13:56 | 53.97870 | -2.79249 | 36006 ft | 418 kts | 159° |
| 2026-05-01 13:56 | 53.95197 | -2.77295 | 36259 ft | 418 kts | 158° |
| 2026-05-01 13:57 | 53.92530 | -2.75339 | 36541 ft | 417 kts | 159° |
| 2026-05-01 13:57 | 53.89869 | -2.73407 | 36814 ft | 416 kts | 159° |
| 2026-05-01 13:57 | 53.87204 | -2.71474 | 37046 ft | 416 kts | 159° |
| 2026-05-01 13:57 | 53.84536 | -2.69545 | 37155 ft | 419 kts | 159° |
| 2026-05-01 13:58 | 53.79156 | -2.65660 | 37155 ft | 421 kts | 159° |
| 2026-05-01 13:58 | 53.73790 | -2.61805 | 37137 ft | 415 kts | 159° |
| 2026-05-01 13:59 | 53.68486 | -2.58018 | 37139 ft | 413 kts | 159° |
| 2026-05-01 13:59 | 53.63233 | -2.54275 | 37154 ft | 413 kts | 159° |
| 2026-05-01 14:00 | 53.57938 | -2.50501 | 37159 ft | 414 kts | 159° |
| 2026-05-01 14:00 | 53.52627 | -2.46719 | 37152 ft | 415 kts | 159° |
| 2026-05-01 14:01 | 53.47312 | -2.42945 | 37149 ft | 416 kts | 159° |
| 2026-05-01 14:01 | 53.41973 | -2.39172 | 37130 ft | 417 kts | 159° |
| 2026-05-01 14:02 | 53.36619 | -2.35402 | 37131 ft | 418 kts | 159° |
| 2026-05-01 14:02 | 53.31253 | -2.31635 | 37135 ft | 419 kts | 159° |
| 2026-05-01 14:03 | 53.25877 | -2.27869 | 37127 ft | 419 kts | 159° |
| 2026-05-01 14:03 | 53.20491 | -2.24144 | 37132 ft | 419 kts | 159° |
| 2026-05-01 14:04 | 53.15100 | -2.20444 | 37136 ft | 419 kts | 159° |
| 2026-05-01 14:04 | 53.09719 | -2.16731 | 37136 ft | 418 kts | 159° |
| 2026-05-01 14:05 | 53.04359 | -2.13015 | 37142 ft | 417 kts | 159° |
| 2026-05-01 14:05 | 52.99002 | -2.09314 | 37145 ft | 417 kts | 159° |
| 2026-05-01 14:06 | 52.93652 | -2.05632 | 37141 ft | 416 kts | 159° |
| 2026-05-01 14:06 | 52.88350 | -2.01994 | 37145 ft | 415 kts | 159° |
| 2026-05-01 14:07 | 52.83017 | -1.98346 | 37135 ft | 414 kts | 159° |
| 2026-05-01 14:08 | 52.75026 | -1.92897 | 37144 ft | 414 kts | 159° |
| 2026-05-01 14:08 | 52.69701 | -1.89278 | 37142 ft | 414 kts | 159° |
| 2026-05-01 14:09 | 52.64371 | -1.85666 | 37141 ft | 414 kts | 159° |
| 2026-05-01 14:09 | 52.59034 | -1.82058 | 37132 ft | 415 kts | 159° |
| 2026-05-01 14:10 | 52.53691 | -1.78456 | 37132 ft | 416 kts | 159° |
| 2026-05-01 14:10 | 52.48330 | -1.74851 | 37130 ft | 416 kts | 159° |
| 2026-05-01 14:11 | 52.42970 | -1.71257 | 37129 ft | 417 kts | 159° |
| 2026-05-01 14:11 | 52.34932 | -1.65781 | 37130 ft | 418 kts | 154° |
| 2026-05-01 14:12 | 52.29855 | -1.61096 | 37136 ft | 420 kts | 151° |
| 2026-05-01 14:12 | 52.24832 | -1.56235 | 37127 ft | 420 kts | 151° |
| 2026-05-01 14:13 | 52.20646 | -1.52230 | 37130 ft | 420 kts | 152° |
| 2026-05-01 14:13 | 52.14742 | -1.46659 | 37116 ft | 419 kts | 152° |
| 2026-05-01 14:14 | 52.09686 | -1.41929 | 37135 ft | 419 kts | 152° |
| 2026-05-01 14:14 | 52.04627 | -1.37213 | 37128 ft | 419 kts | 152° |
| 2026-05-01 14:15 | 51.99572 | -1.32512 | 37127 ft | 419 kts | 152° |
| 2026-05-01 14:15 | 51.94519 | -1.27825 | 37133 ft | 418 kts | 152° |
| 2026-05-01 14:16 | 51.89462 | -1.23146 | 37130 ft | 418 kts | 152° |
| 2026-05-01 14:16 | 51.84407 | -1.18480 | 37130 ft | 418 kts | 152° |
| 2026-05-01 14:17 | 51.79353 | -1.13829 | 37124 ft | 418 kts | 152° |
| 2026-05-01 14:17 | 51.74300 | -1.09190 | 37129 ft | 418 kts | 152° |
| 2026-05-01 14:18 | 51.69241 | -1.04558 | 37132 ft | 418 kts | 152° |
| 2026-05-01 14:18 | 51.65034 | -1.00714 | 37131 ft | 418 kts | 152° |
| 2026-05-01 14:19 | 51.59111 | -0.95318 | 37122 ft | 419 kts | 152° |
| 2026-05-01 14:19 | 51.54043 | -0.90713 | 37140 ft | 419 kts | 152° |
| 2026-05-01 14:20 | 51.46461 | -0.83847 | 37148 ft | 419 kts | 152° |
| 2026-05-01 14:21 | 51.41385 | -0.79264 | 37147 ft | 419 kts | 152° |
| 2026-05-01 14:21 | 51.36310 | -0.74695 | 37154 ft | 419 kts | 152° |
| 2026-05-01 14:22 | 51.28687 | -0.67853 | 37157 ft | 419 kts | 152° |
| 2026-05-01 14:22 | 51.23606 | -0.63307 | 37158 ft | 419 kts | 152° |
| 2026-05-01 14:23 | 51.18522 | -0.58770 | 37160 ft | 419 kts | 152° |
| 2026-05-01 14:23 | 51.13435 | -0.54242 | 37167 ft | 419 kts | 152° |
| 2026-05-01 14:24 | 51.08345 | -0.49723 | 37181 ft | 419 kts | 152° |
| 2026-05-01 14:24 | 51.03254 | -0.45214 | 37182 ft | 419 kts | 152° |
| 2026-05-01 14:25 | 50.98162 | -0.40716 | 37203 ft | 419 kts | 152° |
| 2026-05-01 14:25 | 50.93069 | -0.36229 | 37212 ft | 419 kts | 152° |
| 2026-05-01 14:26 | 50.85429 | -0.29518 | 37204 ft | 419 kts | 152° |
| 2026-05-01 14:27 | 50.80335 | -0.25059 | 37217 ft | 418 kts | 152° |
| 2026-05-01 14:27 | 50.75243 | -0.20612 | 37210 ft | 419 kts | 152° |
| 2026-05-01 14:28 | 50.67591 | -0.13949 | 37210 ft | 419 kts | 152° |
| 2026-05-01 14:28 | 50.62484 | -0.09517 | 37209 ft | 419 kts | 152° |
| 2026-05-01 14:29 | 50.57370 | -0.05089 | 37213 ft | 420 kts | 152° |
| 2026-05-01 14:30 | 50.47153 | 0.03722 | 37213 ft | 420 kts | 152° |
| 2026-05-01 14:31 | 50.39457 | 0.10330 | 37209 ft | 421 kts | 152° |
| 2026-05-01 14:31 | 50.34284 | 0.14759 | 37210 ft | 421 kts | 152° |
| 2026-05-01 14:32 | 50.29175 | 0.19121 | 37208 ft | 421 kts | 152° |
| 2026-05-01 14:32 | 50.24032 | 0.23502 | 37210 ft | 421 kts | 152° |
| 2026-05-01 14:33 | 50.18931 | 0.28002 | 37208 ft | 422 kts | 148° |
| 2026-05-01 14:33 | 50.14031 | 0.33040 | 37212 ft | 422 kts | 147° |
| 2026-05-01 14:34 | 50.09151 | 0.38124 | 37215 ft | 422 kts | 147° |
| 2026-05-01 14:34 | 50.04250 | 0.43161 | 37212 ft | 422 kts | 147° |
| 2026-05-01 14:35 | 49.99336 | 0.48171 | 37216 ft | 422 kts | 147° |
| 2026-05-01 14:35 | 49.94423 | 0.53165 | 37204 ft | 422 kts | 147° |
| 2026-05-01 14:36 | 49.89511 | 0.58147 | 37209 ft | 422 kts | 147° |
| 2026-05-01 14:36 | 49.84636 | 0.63196 | 37206 ft | 422 kts | 143° |
| 2026-05-01 14:37 | 49.80834 | 0.67915 | 37217 ft | 422 kts | 141° |
| 2026-05-01 14:37 | 49.76324 | 0.73725 | 37202 ft | 422 kts | 141° |
| 2026-05-01 14:38 | 49.71794 | 0.79485 | 37201 ft | 422 kts | 142° |
| 2026-05-01 14:38 | 49.67240 | 0.85200 | 37205 ft | 422 kts | 142° |
| 2026-05-01 14:39 | 49.62677 | 0.90894 | 37203 ft | 422 kts | 142° |
| 2026-05-01 14:39 | 49.58115 | 0.96573 | 37195 ft | 422 kts | 142° |
| 2026-05-01 14:40 | 49.53546 | 1.02246 | 37189 ft | 421 kts | 142° |
| 2026-05-01 14:40 | 49.48980 | 1.07903 | 37178 ft | 422 kts | 142° |
| 2026-05-01 14:41 | 49.44408 | 1.13555 | 37186 ft | 422 kts | 142° |
| 2026-05-01 14:41 | 49.39831 | 1.19198 | 37184 ft | 422 kts | 142° |
| 2026-05-01 14:42 | 49.35255 | 1.24833 | 37189 ft | 422 kts | 142° |
| 2026-05-01 14:42 | 49.30666 | 1.30470 | 37183 ft | 423 kts | 142° |
| 2026-05-01 14:43 | 49.26099 | 1.36066 | 37191 ft | 423 kts | 142° |
| 2026-05-01 14:43 | 49.21501 | 1.41686 | 37187 ft | 423 kts | 142° |
| 2026-05-01 14:44 | 49.16900 | 1.47294 | 37196 ft | 423 kts | 142° |
| 2026-05-01 14:44 | 49.10003 | 1.55677 | 37195 ft | 422 kts | 142° |
| 2026-05-01 14:45 | 49.03102 | 1.64032 | 37196 ft | 422 kts | 143° |
| 2026-05-01 14:46 | 48.98500 | 1.69588 | 37209 ft | 422 kts | 143° |
| 2026-05-01 14:46 | 48.91578 | 1.77919 | 37211 ft | 423 kts | 143° |
| 2026-05-01 14:47 | 48.86958 | 1.83463 | 37202 ft | 423 kts | 143° |
| 2026-05-01 14:48 | 48.80023 | 1.91759 | 37211 ft | 423 kts | 143° |
| 2026-05-01 14:48 | 48.73078 | 2.00036 | 37204 ft | 423 kts | 143° |
| 2026-05-01 14:49 | 48.63823 | 2.11020 | 37212 ft | 422 kts | 143° |
| 2026-05-01 14:50 | 48.54007 | 2.20408 | 37189 ft | 418 kts | 164° |
| 2026-05-01 14:51 | 48.45533 | 2.23557 | 37206 ft | 418 kts | 167° |
| 2026-05-01 14:52 | 48.37068 | 2.26703 | 37199 ft | 418 kts | 167° |
| 2026-05-01 14:53 | 48.28656 | 2.30209 | 37206 ft | 419 kts | 165° |
| 2026-05-01 14:53 | 48.23031 | 2.32520 | 37209 ft | 420 kts | 166° |
| 2026-05-01 14:54 | 48.17390 | 2.34835 | 37193 ft | 421 kts | 166° |
| 2026-05-01 14:54 | 48.11738 | 2.37193 | 37214 ft | 422 kts | 166° |
| 2026-05-01 14:55 | 48.06067 | 2.39577 | 37217 ft | 424 kts | 166° |
| 2026-05-01 14:55 | 48.00373 | 2.41975 | 37215 ft | 426 kts | 166° |
| 2026-05-01 14:56 | 47.94698 | 2.44375 | 37208 ft | 427 kts | 166° |
| 2026-05-01 14:56 | 47.89025 | 2.47120 | 37224 ft | 430 kts | 162° |
| 2026-05-01 14:57 | 47.83333 | 2.50070 | 37208 ft | 431 kts | 163° |
| 2026-05-01 14:57 | 47.74862 | 2.54369 | 37209 ft | 431 kts | 163° |
| 2026-05-01 14:58 | 47.69186 | 2.57244 | 37212 ft | 431 kts | 163° |
| 2026-05-01 14:58 | 47.63515 | 2.60115 | 37213 ft | 431 kts | 163° |
| 2026-05-01 14:59 | 47.57847 | 2.62980 | 37214 ft | 430 kts | 164° |
| 2026-05-01 14:59 | 47.52179 | 2.65840 | 37196 ft | 430 kts | 164° |
| 2026-05-01 15:00 | 47.43698 | 2.70105 | 37213 ft | 429 kts | 164° |
| 2026-05-01 15:01 | 47.38047 | 2.72938 | 37212 ft | 429 kts | 164° |
| 2026-05-01 15:01 | 47.32388 | 2.75770 | 37192 ft | 429 kts | 165° |
| 2026-05-01 15:02 | 47.26722 | 2.78598 | 37204 ft | 431 kts | 165° |
| 2026-05-01 15:02 | 47.21040 | 2.81427 | 37216 ft | 432 kts | 165° |
| 2026-05-01 15:03 | 47.15329 | 2.84265 | 37215 ft | 434 kts | 165° |
| 2026-05-01 15:03 | 47.09629 | 2.87091 | 37210 ft | 436 kts | 165° |
| 2026-05-01 15:04 | 47.03867 | 2.89941 | 37211 ft | 438 kts | 165° |
| 2026-05-01 15:04 | 46.98084 | 2.92796 | 37211 ft | 439 kts | 165° |
| 2026-05-01 15:05 | 46.92297 | 2.95647 | 37198 ft | 439 kts | 165° |
| 2026-05-01 15:05 | 46.86507 | 2.98492 | 37207 ft | 439 kts | 165° |
| 2026-05-01 15:06 | 46.80723 | 3.01327 | 37212 ft | 438 kts | 165° |
| 2026-05-01 15:06 | 46.74946 | 3.04153 | 37207 ft | 438 kts | 165° |
| 2026-05-01 15:07 | 46.69178 | 3.06968 | 37211 ft | 437 kts | 165° |
| 2026-05-01 15:07 | 46.63419 | 3.09772 | 37204 ft | 436 kts | 165° |
| 2026-05-01 15:08 | 46.57663 | 3.12568 | 37210 ft | 436 kts | 165° |
| 2026-05-01 15:08 | 46.51914 | 3.15354 | 37201 ft | 435 kts | 165° |
| 2026-05-01 15:09 | 46.46179 | 3.18127 | 37211 ft | 434 kts | 165° |
| 2026-05-01 15:09 | 46.40454 | 3.20890 | 37211 ft | 434 kts | 165° |
| 2026-05-01 15:10 | 46.34719 | 3.23651 | 37200 ft | 436 kts | 165° |
| 2026-05-01 15:10 | 46.26048 | 3.27813 | 37181 ft | 439 kts | 165° |
| 2026-05-01 15:11 | 46.17372 | 3.31966 | 37174 ft | 436 kts | 165° |
| 2026-05-01 15:12 | 46.11632 | 3.34718 | 37179 ft | 434 kts | 163° |
| 2026-05-01 15:12 | 46.03418 | 3.40244 | 37182 ft | 434 kts | 156° |
| 2026-05-01 15:14 | 45.89913 | 3.49712 | 37213 ft | 431 kts | 157° |
| 2026-05-01 15:14 | 45.81783 | 3.55284 | 37214 ft | 432 kts | 157° |
| 2026-05-01 15:15 | 45.70906 | 3.62705 | 37154 ft | 435 kts | 157° |
| 2026-05-01 15:16 | 45.65456 | 3.66414 | 36478 ft | 429 kts | 156° |
| 2026-05-01 15:16 | 45.60121 | 3.70038 | 35726 ft | 422 kts | 157° |
| 2026-05-01 15:17 | 45.54909 | 3.73570 | 34988 ft | 416 kts | 157° |
| 2026-05-01 15:18 | 45.47104 | 3.78844 | 33806 ft | 408 kts | 157° |
| 2026-05-01 15:18 | 45.44577 | 3.80547 | 33438 ft | 404 kts | 157° |
| 2026-05-01 15:19 | 45.37035 | 3.85624 | 32324 ft | 396 kts | 157° |
| 2026-05-01 15:19 | 45.32088 | 3.88945 | 31610 ft | 390 kts | 157° |
| 2026-05-01 15:19 | 45.29640 | 3.90586 | 31263 ft | 388 kts | 157° |
| 2026-05-01 15:20 | 45.24789 | 3.93833 | 30574 ft | 384 kts | 157° |
| 2026-05-01 15:20 | 45.22382 | 3.95442 | 30227 ft | 382 kts | 157° |
| 2026-05-01 15:20 | 45.19985 | 3.97042 | 29812 ft | 380 kts | 157° |
| 2026-05-01 15:21 | 45.17604 | 3.98631 | 29458 ft | 376 kts | 157° |
| 2026-05-01 15:21 | 45.15243 | 4.00205 | 29075 ft | 374 kts | 157° |
| 2026-05-01 15:21 | 45.12903 | 4.01764 | 28725 ft | 370 kts | 157° |
| 2026-05-01 15:21 | 45.10578 | 4.03311 | 28360 ft | 367 kts | 157° |
| 2026-05-01 15:22 | 45.05982 | 4.06365 | 27653 ft | 362 kts | 157° |
| 2026-05-01 15:22 | 45.03708 | 4.07874 | 27308 ft | 360 kts | 157° |
| 2026-05-01 15:22 | 45.01447 | 4.09372 | 26949 ft | 358 kts | 157° |
| 2026-05-01 15:23 | 44.99199 | 4.10862 | 26596 ft | 356 kts | 157° |
| 2026-05-01 15:23 | 44.96966 | 4.12340 | 26259 ft | 353 kts | 157° |
| 2026-05-01 15:23 | 44.94747 | 4.13808 | 25923 ft | 351 kts | 157° |
| 2026-05-01 15:23 | 44.92542 | 4.15264 | 25584 ft | 349 kts | 157° |
| 2026-05-01 15:24 | 44.91086 | 4.16225 | 25356 ft | 348 kts | 157° |
| 2026-05-01 15:24 | 44.88898 | 4.17669 | 25029 ft | 346 kts | 157° |
| 2026-05-01 15:24 | 44.86720 | 4.19105 | 24692 ft | 345 kts | 157° |
| 2026-05-01 15:24 | 44.84554 | 4.20532 | 24345 ft | 343 kts | 157° |
| 2026-05-01 15:25 | 44.82394 | 4.21952 | 24014 ft | 342 kts | 157° |
| 2026-05-01 15:25 | 44.80240 | 4.23369 | 23652 ft | 341 kts | 157° |
| 2026-05-01 15:25 | 44.78096 | 4.24778 | 23271 ft | 339 kts | 157° |
| 2026-05-01 15:25 | 44.75966 | 4.26176 | 22907 ft | 337 kts | 157° |
| 2026-05-01 15:26 | 44.73852 | 4.27563 | 22586 ft | 334 kts | 157° |
| 2026-05-01 15:26 | 44.71754 | 4.28939 | 22252 ft | 331 kts | 157° |
| 2026-05-01 15:26 | 44.69671 | 4.30303 | 21914 ft | 329 kts | 157° |
| 2026-05-01 15:26 | 44.67597 | 4.31660 | 21589 ft | 327 kts | 157° |
| 2026-05-01 15:27 | 44.65542 | 4.33005 | 21256 ft | 325 kts | 157° |
| 2026-05-01 15:27 | 44.63498 | 4.34340 | 20929 ft | 323 kts | 157° |
| 2026-05-01 15:27 | 44.61464 | 4.35667 | 20599 ft | 321 kts | 156° |
| 2026-05-01 15:28 | 44.57439 | 4.38292 | 19960 ft | 317 kts | 156° |
| 2026-05-01 15:28 | 44.55441 | 4.39593 | 19635 ft | 316 kts | 156° |
| 2026-05-01 15:28 | 44.53454 | 4.40886 | 19315 ft | 314 kts | 156° |
| 2026-05-01 15:29 | 44.49508 | 4.43452 | 18679 ft | 311 kts | 156° |
| 2026-05-01 15:29 | 44.47546 | 4.44726 | 18331 ft | 310 kts | 156° |
| 2026-05-01 15:29 | 44.43645 | 4.47256 | 17636 ft | 307 kts | 156° |
| 2026-05-01 15:30 | 44.40437 | 4.49334 | 17102 ft | 304 kts | 156° |
| 2026-05-01 15:31 | 44.32186 | 4.54667 | 15742 ft | 299 kts | 155° |
| 2026-05-01 15:31 | 44.28419 | 4.57096 | 15111 ft | 298 kts | 155° |
| 2026-05-01 15:32 | 44.24667 | 4.59512 | 14485 ft | 296 kts | 155° |
| 2026-05-01 15:32 | 44.20927 | 4.61916 | 13838 ft | 296 kts | 155° |
| 2026-05-01 15:33 | 44.15352 | 4.65495 | 12857 ft | 292 kts | 155° |
| 2026-05-01 15:34 | 44.09798 | 4.68930 | 11855 ft | 291 kts | 158° |